Time;durP1;ratioP1;P1;durP2;ratioP2;P2;SDS_P1;SDS_P2;PMS_P1;PMS_P2;Temp;Humidity;BMP_temperature;BMP_pressure;BME280_temperature;BME280_humidity;BME280_pressure;Samples;Min_cycle;Max_cycle;Signal;HPM_P1;HPM_P2
2023/01/29 00:01:35;;;;;;;;;;;3.50;99.90;;;;;;5075572;28;19916;-82
2023/01/29 00:04:01;;;;;;;;;;;3.50;99.90;;;;;;5068625;28;19915;-83
2023/01/29 00:06:26;;;;;;;;;;;3.50;99.90;;;;;;5066413;28;20329;-81
2023/01/29 00:08:51;;;;;;;;;;;3.50;99.90;;;;;;5067277;28;19917;-84
2023/01/29 00:11:19;;;;;;;;;;;3.50;99.90;;;;;;5071939;28;19916;-83
2023/01/29 00:13:44;;;;;;;;;;;3.50;99.90;;;;;;5069611;28;19930;-69
2023/01/29 00:16:10;;;;;;;;;;;3.50;99.90;;;;;;5066681;28;20641;-70
2023/01/29 00:18:39;;;;;;;;;;;3.50;99.90;;;;;;5071639;28;20302;-69
2023/01/29 00:21:11;;;;;;;;;;;3.50;99.90;;;;;;5069219;28;19908;-69
2023/01/29 00:23:37;;;;;;;;;;;3.50;99.90;;;;;;5071222;28;20192;-69
2023/01/29 00:26:03;;;;;;;;;;;3.60;99.90;;;;;;5071969;28;19912;-69
2023/01/29 00:28:28;;;;;;;;;;;3.60;99.90;;;;;;5073029;28;20323;-69
2023/01/29 00:30:54;;;;;;;;;;;3.60;99.90;;;;;;5071196;28;19919;-69
2023/01/29 00:33:19;;;;;;;;;;;3.60;99.90;;;;;;5071230;28;19977;-68
2023/01/29 00:35:45;;;;;;;;;;;3.60;99.90;;;;;;5064861;28;19962;-69
2023/01/29 00:38:11;;;;;;;;;;;3.60;99.90;;;;;;5075670;28;19961;-80
2023/01/29 00:46:08;;;;;;;;;;;3.50;99.90;;;;;;5075521;28;19939;-75
2023/01/29 00:48:34;;;;;;;;;;;3.50;99.90;;;;;;5072819;28;20307;-69
2023/01/29 00:51:00;;;;;;;;;;;3.50;99.90;;;;;;5069563;28;20275;-76
2023/01/29 00:53:26;;;;;;;;;;;3.50;99.90;;;;;;5063953;28;19916;-73
2023/01/29 00:55:51;;;;;;;;;;;3.50;99.90;;;;;;5065270;28;19934;-69
2023/01/29 00:58:21;;;;;;;;;;;3.50;99.90;;;;;;5074696;28;19919;-80
2023/01/29 01:00:47;;;;;;;;;;;3.50;99.90;;;;;;5064967;28;19924;-72
2023/01/29 01:03:13;;;;;;;;;;;3.50;99.90;;;;;;5067586;28;19916;-70
2023/01/29 01:05:39;;;;;;;;;;;3.50;99.90;;;;;;5065625;28;20029;-75
2023/01/29 01:10:19;;;;;;;;;;;3.50;99.90;;;;;;5070877;28;19912;-70
2023/01/29 01:10:57;;;;;;;;;;;3.50;99.90;;;;;;5068584;28;19912;-68
2023/01/29 01:13:23;;;;;;;;;;;3.60;99.90;;;;;;5073420;28;20310;-69
2023/01/29 01:15:48;;;;;;;;;;;3.60;99.90;;;;;;5071818;28;19944;-69
2023/01/29 01:18:15;;;;;;;;;;;3.60;99.90;;;;;;5073554;28;19908;-68
2023/01/29 01:20:40;;;;;;;;;;;3.70;99.90;;;;;;5070634;28;19919;-69
2023/01/29 01:23:06;;;;;;;;;;;3.60;99.90;;;;;;5070299;28;19908;-79
2023/01/29 01:25:31;;;;;;;;;;;3.60;99.90;;;;;;5074997;28;19912;-83
2023/01/29 01:27:57;;;;;;;;;;;3.70;99.90;;;;;;5075162;28;19916;-82
2023/01/29 01:30:23;;;;;;;;;;;3.70;99.90;;;;;;5066208;28;21046;-83
2023/01/29 01:32:49;;;;;;;;;;;3.70;99.90;;;;;;5062961;28;19909;-80
2023/01/29 01:35:15;;;;;;;;;;;3.70;99.90;;;;;;5070560;28;19908;-81
2023/01/29 01:37:41;;;;;;;;;;;3.70;99.90;;;;;;5072076;28;19909;-80
2023/01/29 01:40:16;;;;;;;;;;;3.70;99.90;;;;;;5063536;28;19954;-84
2023/01/29 01:42:52;;;;;;;;;;;3.70;99.90;;;;;;5073293;28;19973;-81
2023/01/29 01:45:18;;;;;;;;;;;3.70;99.90;;;;;;5063566;28;19908;-76
2023/01/29 01:47:47;;;;;;;;;;;3.70;99.90;;;;;;5068742;28;19973;-72
2023/01/29 01:50:20;;;;;;;;;;;3.70;99.90;;;;;;5073310;28;19971;-83
2023/01/29 01:52:48;;;;;;;;;;;3.70;99.90;;;;;;5065430;28;19916;-80
2023/01/29 01:55:15;;;;;;;;;;;3.70;99.90;;;;;;5065401;28;20303;-78
2023/01/29 01:57:42;;;;;;;;;;;3.70;99.90;;;;;;5071319;28;19954;-70
2023/01/29 02:00:09;;;;;;;;;;;3.70;99.90;;;;;;5074691;28;20299;-76
2023/01/29 02:10:48;;;;;;;;;;;3.60;99.90;;;;;;5074206;28;19920;-78
2023/01/29 02:13:17;;;;;;;;;;;3.60;99.90;;;;;;5067551;28;19913;-79
2023/01/29 02:15:47;;;;;;;;;;;3.60;99.90;;;;;;5071860;28;19959;-74
2023/01/29 02:18:14;;;;;;;;;;;3.60;99.90;;;;;;5054185;28;20323;-70
2023/01/29 02:20:41;;;;;;;;;;;3.60;99.90;;;;;;5069818;28;20330;-70
2023/01/29 02:23:22;;;;;;;;;;;3.60;99.90;;;;;;5070137;28;19942;-73
2023/01/29 02:26:06;;;;;;;;;;;3.60;99.90;;;;;;5071462;28;19912;-72
2023/01/29 02:28:31;;;;;;;;;;;3.70;99.90;;;;;;5071997;28;20348;-76
2023/01/29 02:31:04;;;;;;;;;;;3.70;99.90;;;;;;5069618;28;19915;-75
2023/01/29 02:33:35;;;;;;;;;;;3.60;99.90;;;;;;5068038;28;19931;-79
2023/01/29 02:36:14;;;;;;;;;;;3.60;99.90;;;;;;5065344;28;20325;-74
2023/01/29 02:38:46;;;;;;;;;;;3.60;99.90;;;;;;5069587;28;19912;-75
2023/01/29 02:41:25;;;;;;;;;;;3.60;99.90;;;;;;5070658;28;19991;-76
2023/01/29 02:43:51;;;;;;;;;;;3.60;99.90;;;;;;5060527;28;19916;-83
2023/01/29 02:46:19;;;;;;;;;;;3.60;99.90;;;;;;5063467;28;19912;-73
2023/01/29 02:48:51;;;;;;;;;;;3.60;99.90;;;;;;5069035;28;19917;-80
2023/01/29 02:51:19;;;;;;;;;;;3.60;99.90;;;;;;5071893;28;19999;-69
2023/01/29 02:53:49;;;;;;;;;;;3.60;99.90;;;;;;5063228;28;19908;-69
2023/01/29 02:56:17;;;;;;;;;;;3.60;99.90;;;;;;5065008;28;19939;-77
2023/01/29 02:58:46;;;;;;;;;;;3.50;99.90;;;;;;5066264;28;19955;-79
2023/01/29 03:01:15;;;;;;;;;;;3.50;99.90;;;;;;5077053;28;19917;-71
2023/01/29 03:03:46;;;;;;;;;;;3.50;99.90;;;;;;5066956;28;19966;-76
2023/01/29 03:06:19;;;;;;;;;;;3.50;99.90;;;;;;5068039;28;19951;-79
2023/01/29 03:09:03;;;;;;;;;;;3.50;99.90;;;;;;5063477;28;19912;-73
2023/01/29 03:11:33;;;;;;;;;;;3.50;99.90;;;;;;5069338;28;19915;-76
2023/01/29 03:14:02;;;;;;;;;;;3.50;99.90;;;;;;5063883;28;19916;-74
2023/01/29 03:16:30;;;;;;;;;;;3.50;99.90;;;;;;5064830;28;20039;-76
2023/01/29 03:19:00;;;;;;;;;;;3.50;99.90;;;;;;5072556;28;19908;-71
2023/01/29 03:21:54;;;;;;;;;;;3.50;99.90;;;;;;5068092;28;19908;-77
2023/01/29 03:32:45;;;;;;;;;;;3.50;99.90;;;;;;5072812;28;19915;-73
2023/01/29 03:35:13;;;;;;;;;;;3.50;99.90;;;;;;5071163;28;19916;-75
2023/01/29 03:37:46;;;;;;;;;;;3.50;99.90;;;;;;5072188;28;19912;-70
2023/01/29 03:40:12;;;;;;;;;;;3.50;99.90;;;;;;5066125;28;19916;-69
2023/01/29 03:42:40;;;;;;;;;;;3.50;99.90;;;;;;5075820;28;20215;-68
2023/01/29 03:45:24;;;;;;;;;;;3.50;99.90;;;;;;5068227;28;19917;-69
2023/01/29 03:48:04;;;;;;;;;;;3.50;99.90;;;;;;5074314;28;19916;-69
2023/01/29 03:50:30;;;;;;;;;;;3.50;99.90;;;;;;5075167;28;20003;-73
2023/01/29 03:52:58;;;;;;;;;;;3.40;99.90;;;;;;5070407;28;19955;-69
2023/01/29 03:55:27;;;;;;;;;;;3.40;99.90;;;;;;5061357;28;20273;-70
2023/01/29 03:58:04;;;;;;;;;;;3.40;99.90;;;;;;5075129;28;19919;-81
2023/01/29 04:00:43;;;;;;;;;;;3.50;99.90;;;;;;5072017;28;19912;-69
2023/01/29 04:03:16;;;;;;;;;;;3.50;99.90;;;;;;5064560;28;19919;-69
2023/01/29 04:05:44;;;;;;;;;;;3.40;99.90;;;;;;5069312;28;19916;-69
2023/01/29 04:08:12;;;;;;;;;;;3.50;99.90;;;;;;5073941;28;19912;-69
2023/01/29 04:10:39;;;;;;;;;;;3.50;99.90;;;;;;5068609;28;19908;-69
2023/01/29 04:13:05;;;;;;;;;;;3.50;99.90;;;;;;5076073;28;19969;-76
2023/01/29 04:15:33;;;;;;;;;;;3.50;99.90;;;;;;5072584;28;20494;-72
2023/01/29 04:18:00;;;;;;;;;;;3.50;99.90;;;;;;5067101;28;19940;-71
2023/01/29 04:20:25;;;;;;;;;;;3.50;99.90;;;;;;5076328;28;20245;-78
2023/01/29 04:22:51;;;;;;;;;;;3.40;99.90;;;;;;5074925;28;19962;-69
2023/01/29 04:25:38;;;;;;;;;;;3.40;99.90;;;;;;5074393;28;19909;-78
2023/01/29 04:28:07;;;;;;;;;;;3.50;99.90;;;;;;5072217;28;20229;-69
2023/01/29 04:30:36;;;;;;;;;;;3.50;99.90;;;;;;5069379;28;19950;-80
2023/01/29 04:33:21;;;;;;;;;;;3.50;99.90;;;;;;5074945;28;19908;-73
2023/01/29 04:35:50;;;;;;;;;;;3.50;99.90;;;;;;5063416;28;19982;-69
2023/01/29 04:38:18;;;;;;;;;;;3.50;99.90;;;;;;5069892;28;19908;-69
2023/01/29 04:40:43;;;;;;;;;;;3.50;99.90;;;;;;5073371;28;19923;-69
2023/01/29 04:43:39;;;;;;;;;;;3.50;99.90;;;;;;5069352;28;19905;-72
2023/01/29 04:46:05;;;;;;;;;;;3.50;99.90;;;;;;5071343;28;19913;-71
2023/01/29 04:48:43;;;;;;;;;;;3.50;99.90;;;;;;5074678;28;19919;-69
2023/01/29 04:51:14;;;;;;;;;;;3.50;99.90;;;;;;5071012;28;19931;-69
2023/01/29 04:53:51;;;;;;;;;;;3.50;99.90;;;;;;5075249;28;19934;-69
2023/01/29 04:56:22;;;;;;;;;;;3.50;99.90;;;;;;5071073;28;19916;-70
2023/01/29 04:58:54;;;;;;;;;;;3.50;99.90;;;;;;5072598;28;19912;-69
2023/01/29 05:01:24;;;;;;;;;;;3.50;99.90;;;;;;5074908;28;19959;-75
2023/01/29 05:03:52;;;;;;;;;;;3.50;99.90;;;;;;5061639;28;19983;-69
2023/01/29 05:06:19;;;;;;;;;;;3.50;99.90;;;;;;5073454;28;19955;-76
2023/01/29 05:08:46;;;;;;;;;;;3.50;99.90;;;;;;5061709;28;19919;-69
2023/01/29 05:11:13;;;;;;;;;;;3.50;99.90;;;;;;5071272;28;19912;-70
2023/01/29 05:13:41;;;;;;;;;;;3.50;99.90;;;;;;5069395;28;19921;-69
2023/01/29 05:16:06;;;;;;;;;;;3.50;99.90;;;;;;5071361;28;19931;-69
2023/01/29 05:18:32;;;;;;;;;;;3.50;99.90;;;;;;5072446;28;20306;-71
2023/01/29 05:21:00;;;;;;;;;;;3.50;99.90;;;;;;5065530;28;19944;-69
2023/01/29 05:23:26;;;;;;;;;;;3.50;99.90;;;;;;5071801;28;19912;-69
2023/01/29 05:25:51;;;;;;;;;;;3.50;99.90;;;;;;5069516;28;20219;-70
2023/01/29 05:28:17;;;;;;;;;;;3.50;99.90;;;;;;5069292;28;19912;-69
2023/01/29 05:30:43;;;;;;;;;;;3.50;99.90;;;;;;5070815;28;19954;-69
2023/01/29 05:33:14;;;;;;;;;;;3.50;99.90;;;;;;5071665;28;20291;-69
2023/01/29 05:35:40;;;;;;;;;;;3.50;99.90;;;;;;5072028;28;19935;-68
2023/01/29 05:38:06;;;;;;;;;;;3.50;99.90;;;;;;5068371;28;19908;-69
2023/01/29 05:40:32;;;;;;;;;;;3.50;99.90;;;;;;5073222;28;19919;-69
2023/01/29 05:42:58;;;;;;;;;;;3.50;99.90;;;;;;5065146;28;19909;-81
2023/01/29 05:45:23;;;;;;;;;;;3.50;99.90;;;;;;5067091;28;20003;-69
2023/01/29 05:47:49;;;;;;;;;;;3.50;99.90;;;;;;5063121;28;19959;-77
2023/01/29 05:50:15;;;;;;;;;;;3.50;99.90;;;;;;5067146;28;20210;-69
2023/01/29 05:52:40;;;;;;;;;;;3.50;99.90;;;;;;5064825;28;19952;-68
2023/01/29 05:55:06;;;;;;;;;;;3.50;99.90;;;;;;5069699;28;20333;-69
2023/01/29 05:57:32;;;;;;;;;;;3.50;99.90;;;;;;5071738;28;19995;-69
2023/01/29 05:59:57;;;;;;;;;;;3.40;99.90;;;;;;5068813;28;20000;-68
2023/01/29 06:02:23;;;;;;;;;;;3.40;99.90;;;;;;5072952;28;19927;-72
2023/01/29 06:04:50;;;;;;;;;;;3.50;99.90;;;;;;5068653;28;20305;-69
2023/01/29 06:07:16;;;;;;;;;;;3.50;99.90;;;;;;5060144;28;19912;-69
2023/01/29 06:09:41;;;;;;;;;;;3.50;99.90;;;;;;5070348;28;19973;-70
2023/01/29 06:12:07;;;;;;;;;;;3.50;99.90;;;;;;5061444;28;20216;-69
2023/01/29 06:14:32;;;;;;;;;;;3.40;99.90;;;;;;5067974;28;19920;-69
2023/01/29 06:16:58;;;;;;;;;;;3.40;99.90;;;;;;5066036;28;20003;-70
2023/01/29 06:19:23;;;;;;;;;;;3.50;99.90;;;;;;5065752;28;20224;-69
2023/01/29 06:21:49;;;;;;;;;;;3.40;99.90;;;;;;5070605;28;20219;-78
2023/01/29 06:24:14;;;;;;;;;;;3.40;99.90;;;;;;5071409;28;19935;-69
2023/01/29 06:26:40;;;;;;;;;;;3.40;99.90;;;;;;5073295;28;19912;-77
2023/01/29 06:29:06;;;;;;;;;;;3.40;99.90;;;;;;5071003;28;19908;-69
2023/01/29 06:31:31;;;;;;;;;;;3.40;99.90;;;;;;5071176;28;19912;-74
2023/01/29 06:33:57;;;;;;;;;;;3.50;99.90;;;;;;5069537;28;19998;-69
2023/01/29 06:36:22;;;;;;;;;;;3.40;99.90;;;;;;5071016;28;19998;-69
2023/01/29 06:38:48;;;;;;;;;;;3.40;99.90;;;;;;5064218;28;20032;-69
2023/01/29 06:41:15;;;;;;;;;;;3.40;99.90;;;;;;5064995;28;19959;-69
2023/01/29 06:43:42;;;;;;;;;;;3.40;99.90;;;;;;5073106;28;19923;-69
2023/01/29 06:46:08;;;;;;;;;;;3.40;99.90;;;;;;5070432;28;19913;-78
2023/01/29 06:48:34;;;;;;;;;;;3.40;99.90;;;;;;5069896;28;19974;-69
2023/01/29 06:51:03;;;;;;;;;;;3.40;99.90;;;;;;5067196;28;19908;-72
2023/01/29 06:53:29;;;;;;;;;;;3.40;99.90;;;;;;5072067;28;19998;-71
2023/01/29 06:55:55;;;;;;;;;;;3.40;99.90;;;;;;5072959;28;19936;-73
2023/01/29 06:58:20;;;;;;;;;;;3.50;99.90;;;;;;5070829;28;19939;-72
2023/01/29 07:00:47;;;;;;;;;;;3.50;99.90;;;;;;5071318;28;20366;-71
2023/01/29 07:03:12;;;;;;;;;;;3.50;99.90;;;;;;5072745;28;20274;-69
2023/01/29 07:05:38;;;;;;;;;;;3.50;99.90;;;;;;5073142;28;19942;-69
2023/01/29 07:08:03;;;;;;;;;;;3.50;99.90;;;;;;5066230;28;19952;-69
2023/01/29 07:10:29;;;;;;;;;;;3.50;99.90;;;;;;5076359;28;19909;-71
2023/01/29 07:12:54;;;;;;;;;;;3.50;99.90;;;;;;5067633;28;19908;-68
2023/01/29 07:15:20;;;;;;;;;;;3.50;99.90;;;;;;5063804;28;19944;-69
2023/01/29 07:17:56;;;;;;;;;;;3.50;99.90;;;;;;5075439;28;19915;-77
2023/01/29 07:20:22;;;;;;;;;;;3.50;99.90;;;;;;5065682;28;19920;-68
2023/01/29 07:22:47;;;;;;;;;;;3.50;99.90;;;;;;5072126;28;19912;-69
2023/01/29 07:25:13;;;;;;;;;;;3.50;99.90;;;;;;5072570;28;19908;-69
2023/01/29 07:27:39;;;;;;;;;;;3.50;99.90;;;;;;5069693;28;20030;-82
2023/01/29 07:30:05;;;;;;;;;;;3.50;99.90;;;;;;5074101;28;19959;-68
2023/01/29 07:32:30;;;;;;;;;;;3.50;99.90;;;;;;5071361;28;19909;-69
2023/01/29 07:34:56;;;;;;;;;;;3.50;99.90;;;;;;5074393;28;20254;-68
2023/01/29 07:37:21;;;;;;;;;;;3.50;99.90;;;;;;5067084;28;20196;-69
2023/01/29 07:39:47;;;;;;;;;;;3.50;99.90;;;;;;5075699;28;20329;-69
2023/01/29 07:42:13;;;;;;;;;;;3.50;99.90;;;;;;5067887;28;19916;-68
2023/01/29 07:44:38;;;;;;;;;;;3.50;99.90;;;;;;5066884;28;19927;-68
2023/01/29 07:47:04;;;;;;;;;;;3.50;99.90;;;;;;5074174;28;20003;-80
2023/01/29 07:49:29;;;;;;;;;;;3.50;99.90;;;;;;5073682;28;19916;-73
2023/01/29 07:51:55;;;;;;;;;;;3.50;99.90;;;;;;5072793;28;19915;-70
2023/01/29 07:54:20;;;;;;;;;;;3.50;99.90;;;;;;5076578;28;19944;-69
2023/01/29 07:56:46;;;;;;;;;;;3.50;99.90;;;;;;5077073;28;19952;-69
2023/01/29 07:59:11;;;;;;;;;;;3.60;99.90;;;;;;5074624;28;19913;-68
2023/01/29 08:01:37;;;;;;;;;;;3.60;99.90;;;;;;5071893;28;19924;-80
2023/01/29 08:04:02;;;;;;;;;;;3.60;99.90;;;;;;5074794;28;19915;-68
2023/01/29 08:06:28;;;;;;;;;;;3.60;99.90;;;;;;5071549;28;19912;-68
2023/01/29 08:08:54;;;;;;;;;;;3.60;99.90;;;;;;5071807;28;20020;-75
2023/01/29 08:11:20;;;;;;;;;;;3.60;99.90;;;;;;5071209;28;19927;-68
2023/01/29 08:13:45;;;;;;;;;;;3.60;99.90;;;;;;5058551;28;21379;-68
2023/01/29 08:16:11;;;;;;;;;;;3.60;99.90;;;;;;5056610;28;19919;-74
2023/01/29 08:18:37;;;;;;;;;;;3.60;99.90;;;;;;5064652;28;20050;-70
2023/01/29 08:21:03;;;;;;;;;;;3.70;99.90;;;;;;5067607;28;19923;-68
2023/01/29 08:23:29;;;;;;;;;;;3.60;99.90;;;;;;5064416;28;19908;-84
2023/01/29 08:25:54;;;;;;;;;;;3.70;99.90;;;;;;5071316;28;19924;-70
2023/01/29 08:28:20;;;;;;;;;;;3.70;99.90;;;;;;5072115;28;20319;-80
2023/01/29 08:30:45;;;;;;;;;;;3.70;99.90;;;;;;5067939;28;20295;-68
2023/01/29 08:33:11;;;;;;;;;;;3.70;99.90;;;;;;5069405;28;19912;-77
2023/01/29 08:35:36;;;;;;;;;;;3.70;99.90;;;;;;5068769;28;19920;-69
2023/01/29 08:38:03;;;;;;;;;;;3.70;99.90;;;;;;5071564;28;19908;-80
2023/01/29 08:40:33;;;;;;;;;;;3.70;99.90;;;;;;5070454;28;19966;-67
2023/01/29 08:43:01;;;;;;;;;;;3.70;99.90;;;;;;5071583;28;19931;-74
2023/01/29 08:45:27;;;;;;;;;;;3.70;99.90;;;;;;5062030;28;20062;-69
2023/01/29 08:47:52;;;;;;;;;;;3.80;99.90;;;;;;5070048;28;20003;-70
2023/01/29 08:50:18;;;;;;;;;;;3.80;99.90;;;;;;5062752;28;19916;-68
2023/01/29 08:52:44;;;;;;;;;;;3.80;99.90;;;;;;5071850;28;19912;-69
2023/01/29 08:55:10;;;;;;;;;;;3.80;99.90;;;;;;5073981;28;19912;-70
2023/01/29 08:57:36;;;;;;;;;;;3.90;99.90;;;;;;5064246;28;19909;-70
2023/01/29 09:00:02;;;;;;;;;;;3.90;99.90;;;;;;5071003;28;19909;-69
2023/01/29 09:02:28;;;;;;;;;;;3.90;99.90;;;;;;5065037;28;19917;-75
2023/01/29 09:04:53;;;;;;;;;;;3.90;99.90;;;;;;5069803;28;19919;-75
2023/01/29 09:07:20;;;;;;;;;;;3.90;99.90;;;;;;5071400;28;19912;-68
2023/01/29 09:09:46;;;;;;;;;;;4.00;99.90;;;;;;5069494;28;19908;-67
2023/01/29 09:12:12;;;;;;;;;;;4.00;99.90;;;;;;5062252;28;19912;-71
2023/01/29 09:14:37;;;;;;;;;;;4.00;99.90;;;;;;5067785;28;19915;-80
2023/01/29 09:17:03;;;;;;;;;;;4.10;99.90;;;;;;5065987;28;19955;-67
2023/01/29 09:19:28;;;;;;;;;;;4.10;99.90;;;;;;5059691;28;20000;-76
2023/01/29 09:21:54;;;;;;;;;;;4.10;99.90;;;;;;5072533;28;20007;-70
2023/01/29 09:24:19;;;;;;;;;;;4.10;99.90;;;;;;5074596;28;19908;-81
2023/01/29 09:26:45;;;;;;;;;;;4.10;99.90;;;;;;5071874;28;19920;-72
2023/01/29 09:29:11;;;;;;;;;;;4.10;99.90;;;;;;5070257;28;19915;-83
2023/01/29 09:31:36;;;;;;;;;;;4.10;99.90;;;;;;5065554;28;19999;-68
2023/01/29 09:34:02;;;;;;;;;;;4.10;99.90;;;;;;5066147;28;19924;-81
2023/01/29 09:36:27;;;;;;;;;;;4.10;99.90;;;;;;5064954;28;19915;-67
2023/01/29 09:38:53;;;;;;;;;;;4.10;99.90;;;;;;5071713;28;19912;-82
2023/01/29 09:41:18;;;;;;;;;;;4.20;99.90;;;;;;5070537;28;19908;-68
2023/01/29 09:43:54;;;;;;;;;;;4.20;99.90;;;;;;5063200;28;19912;-68
2023/01/29 09:46:45;;;;;;;;;;;4.20;99.90;;;;;;5071839;28;19918;-68
2023/01/29 09:49:11;;;;;;;;;;;4.20;99.90;;;;;;5064952;28;20230;-81
2023/01/29 09:51:39;;;;;;;;;;;4.20;99.90;;;;;;5068256;28;19913;-68
2023/01/29 09:54:25;;;;;;;;;;;4.20;99.90;;;;;;5068930;28;19908;-68
2023/01/29 09:56:55;;;;;;;;;;;4.20;99.90;;;;;;5065468;28;20299;-68
2023/01/29 09:59:26;;;;;;;;;;;4.20;99.90;;;;;;5065410;28;19909;-70
2023/01/29 10:01:51;;;;;;;;;;;4.30;99.90;;;;;;5064820;28;19920;-79
2023/01/29 10:04:17;;;;;;;;;;;4.30;99.90;;;;;;5064658;28;20349;-76
2023/01/29 10:06:53;;;;;;;;;;;4.30;99.90;;;;;;5065141;28;20011;-69
2023/01/29 10:09:19;;;;;;;;;;;4.30;99.90;;;;;;5073437;28;20286;-69
2023/01/29 10:11:47;;;;;;;;;;;4.30;99.90;;;;;;5066219;28;19951;-75
2023/01/29 10:14:18;;;;;;;;;;;4.30;99.90;;;;;;5069044;28;19920;-73
2023/01/29 10:16:47;;;;;;;;;;;4.30;99.90;;;;;;5062009;28;19999;-69
2023/01/29 10:19:12;;;;;;;;;;;4.30;99.90;;;;;;5057178;28;19920;-69
2023/01/29 10:21:47;;;;;;;;;;;4.30;99.90;;;;;;5072051;28;20250;-69
2023/01/29 10:24:31;;;;;;;;;;;4.30;99.90;;;;;;5064308;28;19916;-76
2023/01/29 10:26:57;;;;;;;;;;;4.30;99.90;;;;;;5060982;28;19923;-84
2023/01/29 10:29:22;;;;;;;;;;;4.30;99.90;;;;;;5073568;28;19913;-75
2023/01/29 10:31:51;;;;;;;;;;;4.30;99.90;;;;;;5073198;28;19911;-80
2023/01/29 10:34:30;;;;;;;;;;;4.30;99.90;;;;;;5069741;28;19954;-79
2023/01/29 10:36:58;;;;;;;;;;;4.40;99.90;;;;;;5066353;28;20244;-83
2023/01/29 10:39:24;;;;;;;;;;;4.40;99.90;;;;;;5071964;28;20265;-69
2023/01/29 10:42:08;;;;;;;;;;;4.40;99.90;;;;;;5072915;28;19920;-80
2023/01/29 10:44:34;;;;;;;;;;;4.40;99.90;;;;;;5072369;28;19923;-80
2023/01/29 10:47:06;;;;;;;;;;;4.50;99.90;;;;;;5072183;28;20195;-69
2023/01/29 10:49:51;;;;;;;;;;;4.50;99.90;;;;;;5074978;28;19919;-70
2023/01/29 10:52:35;;;;;;;;;;;4.50;99.90;;;;;;5069880;28;19913;-70
2023/01/29 10:55:19;;;;;;;;;;;4.50;99.90;;;;;;5063444;28;19908;-73
2023/01/29 10:58:00;;;;;;;;;;;4.50;99.90;;;;;;5077688;28;20196;-73
2023/01/29 11:00:26;;;;;;;;;;;4.50;99.90;;;;;;5071436;28;19909;-70
2023/01/29 11:02:52;;;;;;;;;;;4.50;99.90;;;;;;5070906;28;20353;-78
2023/01/29 11:05:18;;;;;;;;;;;4.50;99.90;;;;;;5069051;28;19930;-71
2023/01/29 11:07:44;;;;;;;;;;;4.50;99.90;;;;;;5069416;28;19917;-80
2023/01/29 11:10:12;;;;;;;;;;;4.50;99.90;;;;;;5069862;28;20295;-76
2023/01/29 11:12:38;;;;;;;;;;;4.50;99.90;;;;;;5069068;28;19908;-71
2023/01/29 11:15:03;;;;;;;;;;;4.50;99.90;;;;;;5072697;28;19935;-70
2023/01/29 11:17:29;;;;;;;;;;;4.50;99.90;;;;;;5069032;28;19908;-72
2023/01/29 11:19:55;;;;;;;;;;;4.50;99.90;;;;;;5067547;28;19998;-81
2023/01/29 11:22:22;;;;;;;;;;;4.50;99.90;;;;;;5069424;28;19931;-73
2023/01/29 11:25:08;;;;;;;;;;;4.50;99.90;;;;;;5066412;28;19909;-69
2023/01/29 11:27:37;;;;;;;;;;;4.50;99.90;;;;;;5064175;28;20204;-69
2023/01/29 11:30:03;;;;;;;;;;;4.50;99.90;;;;;;5068937;28;19936;-73
2023/01/29 11:32:32;;;;;;;;;;;4.50;99.90;;;;;;5067558;28;19908;-79
2023/01/29 11:35:04;;;;;;;;;;;4.50;99.90;;;;;;5067786;28;19916;-69
2023/01/29 11:37:31;;;;;;;;;;;4.50;99.90;;;;;;5054139;28;19915;-76
2023/01/29 11:39:57;;;;;;;;;;;4.50;99.90;;;;;;5066773;28;19916;-81
2023/01/29 11:42:22;;;;;;;;;;;4.50;99.90;;;;;;5064439;28;19908;-77
2023/01/29 11:44:48;;;;;;;;;;;4.50;99.90;;;;;;5066013;28;19917;-79
2023/01/29 11:47:14;;;;;;;;;;;4.50;99.90;;;;;;5067998;28;19920;-69
2023/01/29 11:49:43;;;;;;;;;;;4.50;99.90;;;;;;5065518;28;19931;-72
2023/01/29 11:52:09;;;;;;;;;;;4.50;99.90;;;;;;5065650;28;19912;-70
2023/01/29 11:55:04;;;;;;;;;;;4.40;99.90;;;;;;5067561;28;19904;-71
2023/01/29 11:57:34;;;;;;;;;;;4.40;99.90;;;;;;5056453;28;20283;-69
2023/01/29 12:00:05;;;;;;;;;;;4.50;99.90;;;;;;5069019;28;19940;-70
2023/01/29 12:03:06;;;;;;;;;;;4.50;99.90;;;;;;5067350;28;19916;-71
2023/01/29 12:05:32;;;;;;;;;;;4.50;99.90;;;;;;5008472;28;19917;-86
2023/01/29 12:07:59;;;;;;;;;;;4.50;99.90;;;;;;4992144;28;19940;-69
2023/01/29 12:10:42;;;;;;;;;;;4.50;99.90;;;;;;4993041;28;20338;-78
2023/01/29 12:13:08;;;;;;;;;;;4.50;99.90;;;;;;5008669;28;20263;-81
2023/01/29 12:15:34;;;;;;;;;;;4.50;99.90;;;;;;5011823;28;19910;-69
2023/01/29 12:18:02;;;;;;;;;;;4.50;99.90;;;;;;5008869;28;19968;-71
2023/01/29 12:20:37;;;;;;;;;;;4.50;99.90;;;;;;5010866;28;19909;-69
2023/01/29 12:23:21;;;;;;;;;;;4.50;99.90;;;;;;5011209;28;19992;-69
2023/01/29 12:25:52;;;;;;;;;;;4.50;99.90;;;;;;5010791;28;20204;-85
2023/01/29 12:28:22;;;;;;;;;;;4.50;99.90;;;;;;5011560;28;20201;-68
2023/01/29 12:30:57;;;;;;;;;;;4.50;99.90;;;;;;5009875;28;19909;-84
2023/01/29 12:33:51;;;;;;;;;;;4.50;99.90;;;;;;5009269;28;20059;-72
2023/01/29 12:36:33;;;;;;;;;;;4.60;99.90;;;;;;4990208;28;19958;-75
2023/01/29 12:38:59;;;;;;;;;;;4.60;99.90;;;;;;5012933;28;19916;-81
2023/01/29 12:42:03;;;;;;;;;;;4.60;99.90;;;;;;5057489;28;19915;-69
2023/01/29 12:44:35;;;;;;;;;;;4.70;99.90;;;;;;5028063;28;19909;-70
2023/01/29 12:47:03;;;;;;;;;;;4.70;99.90;;;;;;5030324;28;19913;-75
2023/01/29 12:49:32;;;;;;;;;;;4.80;99.90;;;;;;5029432;28;20024;-84
2023/01/29 12:52:00;;;;;;;;;;;4.80;99.90;;;;;;5027775;28;19931;-82
2023/01/29 12:54:35;;;;;;;;;;;4.90;99.90;;;;;;5025429;28;19909;-69
2023/01/29 12:57:03;;;;;;;;;;;4.90;99.90;;;;;;5029762;28;19956;-69
2023/01/29 12:59:31;;;;;;;;;;;4.90;99.90;;;;;;5027514;28;19909;-70
2023/01/29 13:02:01;;;;;;;;;;;5.00;99.90;;;;;;5029480;28;19941;-68
2023/01/29 13:04:52;;;;;;;;;;;5.00;99.90;;;;;;5028763;28;19913;-82
2023/01/29 13:07:22;;;;;;;;;;;5.00;99.90;;;;;;5026037;28;19913;-82
2023/01/29 13:09:54;;;;;;;;;;;5.10;99.90;;;;;;5027211;28;19959;-87
2023/01/29 13:12:20;;;;;;;;;;;5.10;99.90;;;;;;5030295;28;20201;-69
2023/01/29 13:14:52;;;;;;;;;;;5.10;99.90;;;;;;5032598;28;19915;-83
2023/01/29 13:17:24;;;;;;;;;;;5.20;99.90;;;;;;5051235;28;19909;-71
2023/01/29 13:19:51;;;;;;;;;;;5.10;99.90;;;;;;5030924;28;19912;-86
2023/01/29 13:22:23;;;;;;;;;;;5.20;99.90;;;;;;5049097;28;19952;-84
2023/01/29 13:24:49;;;;;;;;;;;5.20;99.90;;;;;;5030749;28;19909;-75
2023/01/29 13:27:19;;;;;;;;;;;5.20;99.90;;;;;;5045461;28;19939;-72
2023/01/29 13:29:44;;;;;;;;;;;5.10;99.90;;;;;;5031940;28;19917;-83
2023/01/29 13:32:10;;;;;;;;;;;5.10;99.90;;;;;;5047540;28;19983;-86
2023/01/29 13:34:36;;;;;;;;;;;5.10;99.90;;;;;;5031709;28;19920;-71
2023/01/29 13:37:16;;;;;;;;;;;5.10;99.90;;;;;;5042354;28;20296;-69
2023/01/29 13:39:46;;;;;;;;;;;5.20;99.90;;;;;;5046013;28;19962;-84
2023/01/29 13:42:17;;;;;;;;;;;5.20;99.90;;;;;;5030803;28;19923;-70
2023/01/29 13:44:46;;;;;;;;;;;5.10;99.90;;;;;;5038783;28;19913;-82
2023/01/29 13:47:20;;;;;;;;;;;5.10;99.90;;;;;;5031290;28;19916;-70
2023/01/29 13:49:52;;;;;;;;;;;5.10;99.90;;;;;;5053839;28;19919;-80
2023/01/29 13:52:27;;;;;;;;;;;5.10;99.90;;;;;;5048318;28;19991;-77
2023/01/29 13:55:03;;;;;;;;;;;5.10;99.90;;;;;;5052729;28;20004;-70
2023/01/29 13:57:32;;;;;;;;;;;5.10;99.90;;;;;;5054651;28;19908;-83
2023/01/29 13:59:57;;;;;;;;;;;5.10;99.90;;;;;;5053428;28;19912;-82
2023/01/29 14:02:24;;;;;;;;;;;5.10;99.90;;;;;;5061643;28;19924;-84
2023/01/29 14:04:50;;;;;;;;;;;5.10;99.90;;;;;;5063816;28;19912;-78
2023/01/29 14:07:36;;;;;;;;;;;5.10;99.90;;;;;;5070843;28;20306;-80
2023/01/29 14:10:16;;;;;;;;;;;5.10;99.90;;;;;;5070680;28;19952;-77
2023/01/29 14:12:42;;;;;;;;;;;5.10;99.90;;;;;;5071691;28;19912;-75
2023/01/29 14:15:17;;;;;;;;;;;5.20;99.90;;;;;;5073560;28;20227;-82
2023/01/29 14:17:53;;;;;;;;;;;5.20;99.90;;;;;;5072726;28;20007;-83
2023/01/29 14:20:22;;;;;;;;;;;5.20;99.90;;;;;;5070361;28;19912;-82
2023/01/29 14:22:55;;;;;;;;;;;5.20;99.90;;;;;;5072619;28;19918;-71
2023/01/29 14:25:22;;;;;;;;;;;5.20;99.90;;;;;;5074508;28;19962;-84
2023/01/29 14:27:48;;;;;;;;;;;5.20;99.90;;;;;;5071490;28;20210;-70
2023/01/29 14:30:16;;;;;;;;;;;5.20;99.90;;;;;;5073463;28;19912;-82
2023/01/29 14:32:45;;;;;;;;;;;5.20;99.90;;;;;;5072632;28;19998;-84
2023/01/29 14:35:19;;;;;;;;;;;5.20;99.90;;;;;;5067542;28;20295;-85
2023/01/29 14:37:45;;;;;;;;;;;5.20;99.90;;;;;;5072563;28;19916;-68
2023/01/29 14:40:11;;;;;;;;;;;5.20;99.90;;;;;;5074716;28;19930;-84
2023/01/29 14:42:38;;;;;;;;;;;5.30;99.90;;;;;;5073622;28;19912;-84
2023/01/29 14:45:22;;;;;;;;;;;5.30;99.90;;;;;;5064559;28;19909;-69
2023/01/29 14:47:47;;;;;;;;;;;5.30;99.90;;;;;;5059977;28;19916;-81
2023/01/29 14:50:31;;;;;;;;;;;5.30;99.90;;;;;;5060688;28;19908;-70
2023/01/29 14:53:09;;;;;;;;;;;5.30;99.90;;;;;;5068919;28;20299;-81
2023/01/29 14:55:37;;;;;;;;;;;5.30;99.90;;;;;;5072789;28;19912;-74
2023/01/29 14:58:03;;;;;;;;;;;5.30;99.90;;;;;;5068135;28;20003;-89
2023/01/29 15:00:30;;;;;;;;;;;5.30;99.90;;;;;;5071607;28;19927;-85
2023/01/29 15:02:56;;;;;;;;;;;5.20;99.90;;;;;;5073381;28;20307;-73
2023/01/29 15:05:28;;;;;;;;;;;5.20;99.90;;;;;;5071130;28;19912;-84